createdAt,value
2023-05-11T00:01:11.378Z,12.50
2023-05-11T00:03:41.073Z,12.30
2023-05-11T00:06:11.882Z,12.40
2023-05-11T00:08:41.357Z,12.50
2023-05-11T00:11:11.460Z,12.50
2023-05-11T00:13:41.000Z,12.50
2023-05-11T00:16:10.606Z,12.50
2023-05-11T00:18:40.203Z,12.40
2023-05-11T00:21:09.753Z,12.40
2023-05-11T00:23:39.243Z,12.40
2023-05-11T00:26:08.949Z,12.60
2023-05-11T00:28:38.557Z,12.70
2023-05-11T00:31:08.147Z,12.50
2023-05-11T00:33:38.006Z,12.50
2023-05-11T00:36:09.924Z,12.40
2023-05-11T00:38:41.480Z,12.10
2023-05-11T00:41:11.032Z,12.10
2023-05-11T00:43:40.897Z,12.30
2023-05-11T00:46:10.936Z,12.20
2023-05-11T00:48:40.775Z,12.20
2023-05-11T00:51:11.918Z,12.30
2023-05-11T00:53:41.855Z,12.40
2023-05-11T00:56:11.760Z,12.60
2023-05-11T00:58:41.331Z,12.70
2023-05-11T01:01:11.210Z,12.60
2023-05-11T01:03:40.867Z,12.70
2023-05-11T01:06:13.592Z,12.60
2023-05-11T01:09:08.055Z,12.70
2023-05-11T01:11:53.085Z,12.80
2023-05-11T01:14:28.621Z,12.60
2023-05-11T01:17:01.721Z,12.60
2023-05-11T01:19:46.554Z,12.70
2023-05-11T01:22:44.220Z,12.80
2023-05-11T01:25:42.598Z,12.70
2023-05-11T01:28:42.335Z,12.70
2023-05-11T01:31:16.702Z,12.70
2023-05-11T01:33:49.701Z,12.60
2023-05-11T01:36:21.866Z,12.60
2023-05-11T01:38:53.510Z,12.50
2023-05-11T01:41:26.480Z,12.50
2023-05-11T01:43:59.521Z,12.70
2023-05-11T01:46:32.172Z,12.70
2023-05-11T01:49:04.984Z,12.60
2023-05-11T01:51:37.862Z,12.50
2023-05-11T01:54:10.454Z,12.50
2023-05-11T01:56:42.726Z,12.50
2023-05-11T01:59:14.541Z,12.50
2023-05-11T02:01:44.235Z,12.50
2023-05-11T02:04:15.550Z,12.40
2023-05-11T02:06:48.033Z,12.30
2023-05-11T02:09:20.046Z,12.10
2023-05-11T02:11:51.546Z,12.20
2023-05-11T02:14:23.810Z,12.20
2023-05-11T02:16:54.845Z,12.20
2023-05-11T02:19:24.790Z,12.30
2023-05-11T02:21:55.689Z,12.40
2023-05-11T02:25:42.043Z,12.30
2023-05-11T02:28:11.666Z,12.10
2023-05-11T02:30:47.150Z,11.80
2023-05-11T02:33:24.591Z,11.80
2023-05-11T02:35:57.250Z,11.70
2023-05-11T02:38:31.521Z,11.60
2023-05-11T02:41:11.468Z,11.60
2023-05-11T02:43:46.141Z,11.70
2023-05-11T02:46:18.797Z,11.40
2023-05-11T02:48:51.420Z,11.60
2023-05-11T02:51:28.690Z,11.70
2023-05-11T02:54:00.488Z,11.60
2023-05-11T02:56:32.450Z,11.80
2023-05-11T02:59:03.340Z,11.80
2023-05-11T03:01:34.446Z,11.70
2023-05-11T03:04:07.201Z,11.80
2023-05-11T03:06:36.685Z,11.70
2023-05-11T03:09:09.943Z,11.80
2023-05-11T03:11:41.547Z,11.80
2023-05-11T03:14:11.471Z,11.90
2023-05-11T03:16:44.196Z,11.90
2023-05-11T03:19:15.524Z,11.70
2023-05-11T03:21:46.110Z,11.80
2023-05-11T03:24:16.127Z,11.80
2023-05-11T03:26:47.176Z,11.60
2023-05-11T03:29:18.094Z,11.60
2023-05-11T03:31:50.364Z,11.60
2023-05-11T03:34:19.107Z,11.50
2023-05-11T03:36:51.702Z,11.50
2023-05-11T03:39:22.271Z,11.40
2023-05-11T03:41:53.006Z,11.40
2023-05-11T03:44:23.900Z,11.30
2023-05-11T03:46:55.751Z,11.40
2023-05-11T03:49:27.264Z,11.50
2023-05-11T03:51:58.200Z,11.50
2023-05-11T03:54:28.328Z,11.50
2023-05-11T03:56:57.930Z,11.40
2023-05-11T03:59:27.559Z,11.40
2023-05-11T04:01:58.965Z,11.40
2023-05-11T04:04:32.915Z,11.50
2023-05-11T04:07:02.958Z,11.50
2023-05-11T04:09:33.549Z,11.60
2023-05-11T04:12:03.093Z,11.70
2023-05-11T04:14:32.580Z,11.60
2023-05-11T04:17:02.160Z,11.60
2023-05-11T04:19:31.615Z,11.60
2023-05-11T04:22:02.613Z,11.70
2023-05-11T04:24:32.563Z,11.60
2023-05-11T04:27:02.031Z,11.60
2023-05-11T04:29:33.155Z,11.50
2023-05-11T04:32:02.764Z,11.50
2023-05-11T04:34:32.344Z,11.40
2023-05-11T04:37:03.743Z,11.40
2023-05-11T04:39:33.301Z,11.20
2023-05-11T04:42:03.284Z,11.10
2023-05-11T04:44:33.970Z,11.30
2023-05-11T04:47:03.648Z,11.20
2023-05-11T04:49:33.707Z,11.10
2023-05-11T04:52:03.357Z,11.30
2023-05-11T04:54:33.625Z,11.40
2023-05-11T04:57:03.185Z,11.40
2023-05-11T04:59:33.999Z,11.30
2023-05-11T05:02:03.979Z,11.30
2023-05-11T05:04:35.615Z,11.20
2023-05-11T05:07:04.772Z,11.40
2023-05-11T05:09:34.307Z,11.40
2023-05-11T05:12:04.384Z,11.40
2023-05-11T05:14:34.621Z,11.50
2023-05-11T05:17:05.063Z,11.40
2023-05-11T05:19:35.185Z,11.40
2023-05-11T05:22:05.597Z,11.50
2023-05-11T05:24:35.180Z,11.40
2023-05-11T05:27:06.410Z,11.50
2023-05-11T05:29:36.868Z,11.50
2023-05-11T05:32:07.063Z,11.50
2023-05-11T05:34:38.559Z,11.60
2023-05-11T05:37:07.934Z,11.70
2023-05-11T05:39:37.859Z,11.70
2023-05-11T05:42:08.484Z,11.70
2023-05-11T05:44:38.267Z,11.70
2023-05-11T05:47:07.975Z,11.70
2023-05-11T05:49:38.770Z,11.70
2023-05-11T05:52:11.138Z,11.70
2023-05-11T05:54:41.741Z,11.70
2023-05-11T05:57:12.775Z,11.70
2023-05-11T05:59:42.508Z,11.80
2023-05-11T06:02:13.789Z,11.80
2023-05-11T06:04:43.590Z,11.80
2023-05-11T06:07:14.670Z,11.90
2023-05-11T06:09:44.149Z,11.90
2023-05-11T06:12:13.966Z,12.00
2023-05-11T06:14:46.087Z,12.10
2023-05-11T06:17:16.354Z,12.10
2023-05-11T06:19:47.728Z,11.90
2023-05-11T06:22:17.758Z,12.00
2023-05-11T06:24:47.320Z,12.20
2023-05-11T06:27:18.334Z,12.10
2023-05-11T06:29:48.013Z,12.10
2023-05-11T06:32:17.639Z,12.10
2023-05-11T06:34:47.185Z,12.30
2023-05-11T06:37:18.575Z,12.40
2023-05-11T06:39:50.166Z,12.60
2023-05-11T06:42:19.910Z,12.80
2023-05-11T06:44:50.992Z,13.20
2023-05-11T06:47:20.617Z,13.40
2023-05-11T06:49:50.326Z,13.20
2023-05-11T06:52:19.861Z,13.00
2023-05-11T06:54:49.357Z,13.20
2023-05-11T06:57:19.311Z,13.10
2023-05-11T06:59:49.363Z,13.10
2023-05-11T07:02:18.838Z,13.00
2023-05-11T07:04:48.429Z,13.10
2023-05-11T07:07:17.981Z,13.00
2023-05-11T07:09:47.461Z,13.00
2023-05-11T07:12:17.353Z,13.20
2023-05-11T07:14:46.826Z,13.50
2023-05-11T07:17:17.241Z,14.00
2023-05-11T07:19:46.805Z,14.50
2023-05-11T07:22:16.290Z,14.70
2023-05-11T07:24:45.943Z,14.50
2023-05-11T07:27:15.538Z,14.50
2023-05-11T07:29:45.091Z,14.20
2023-05-11T07:32:15.040Z,14.20
2023-05-11T07:34:46.098Z,14.20
2023-05-11T07:37:16.111Z,14.50
2023-05-11T07:39:45.827Z,14.70
2023-05-11T07:42:15.422Z,14.70
2023-05-11T07:44:44.973Z,14.80
2023-05-11T07:47:14.522Z,15.40
2023-05-11T07:49:44.757Z,16.30
2023-05-11T07:52:14.569Z,16.90
2023-05-11T07:54:44.455Z,17.40
2023-05-11T07:57:14.141Z,18.00
2023-05-11T07:59:43.952Z,18.10
2023-05-11T08:02:13.627Z,16.90
2023-05-11T08:04:44.252Z,16.10
2023-05-11T08:07:13.947Z,15.10
2023-05-11T08:09:43.664Z,14.50
2023-05-11T08:12:13.509Z,14.50
2023-05-11T08:14:43.536Z,14.10
2023-05-11T08:17:13.082Z,14.10
2023-05-11T08:19:42.637Z,14.20
2023-05-11T08:22:13.002Z,14.10
2023-05-11T08:24:42.724Z,14.10
2023-05-11T08:27:12.256Z,14.20
2023-05-11T08:29:41.858Z,14.20
2023-05-11T08:32:11.441Z,14.10
2023-05-11T08:34:41.198Z,14.10
2023-05-11T08:37:11.123Z,14.10
2023-05-11T08:39:47.406Z,14.30
2023-05-11T08:42:14.201Z,14.30
2023-05-11T08:44:45.751Z,15.00
2023-05-11T08:47:23.194Z,15.60
2023-05-11T08:49:48.945Z,15.80
2023-05-11T08:52:20.401Z,16.10
2023-05-11T08:54:49.967Z,16.20
2023-05-11T08:57:20.546Z,16.20
2023-05-11T08:59:50.170Z,15.70
2023-05-11T09:02:21.439Z,15.10
2023-05-11T09:04:51.928Z,14.90
2023-05-11T09:07:23.177Z,15.00
2023-05-11T09:09:53.199Z,15.30
2023-05-11T09:12:25.101Z,15.30
2023-05-11T09:14:54.834Z,15.20
2023-05-11T09:17:26.870Z,15.10
2023-05-11T09:20:05.981Z,15.40
2023-05-11T09:22:43.102Z,15.50
2023-05-11T09:25:19.763Z,16.40
2023-05-11T09:27:50.639Z,17.10
2023-05-11T09:30:23.707Z,17.70
2023-05-11T09:33:01.853Z,17.70
2023-05-11T09:35:33.649Z,17.60
2023-05-11T09:38:15.430Z,17.90
2023-05-11T09:40:58.331Z,17.10
2023-05-11T09:43:30.173Z,16.50
2023-05-11T09:46:05.116Z,16.30
2023-05-11T09:48:35.616Z,16.80
2023-05-11T09:51:07.853Z,17.10
2023-05-11T09:53:43.933Z,17.20
2023-05-11T09:56:15.665Z,17.80
2023-05-11T09:58:48.478Z,18.20
2023-05-11T10:01:20.280Z,19.20
2023-05-11T10:04:02.642Z,18.60
2023-05-11T10:06:26.027Z,17.50
2023-05-11T10:08:56.281Z,17.00
2023-05-11T10:11:26.320Z,18.30
2023-05-11T10:13:56.234Z,19.20
2023-05-11T10:16:25.888Z,19.30
2023-05-11T10:18:56.941Z,18.90
2023-05-11T10:21:27.584Z,19.50
2023-05-11T10:23:59.735Z,20.00
2023-05-11T10:26:32.531Z,19.20
2023-05-11T10:29:03.787Z,19.00
2023-05-11T10:31:34.515Z,19.30
2023-05-11T10:34:05.426Z,18.60
2023-05-11T10:36:35.949Z,19.30
2023-05-11T10:39:05.681Z,20.00
2023-05-11T10:41:44.882Z,19.80
2023-05-11T10:44:34.184Z,19.10
2023-05-11T10:47:19.244Z,19.00
2023-05-11T10:50:01.083Z,20.40
2023-05-11T10:53:05.454Z,20.80
2023-05-11T10:55:50.382Z,20.80
2023-05-11T10:58:39.673Z,19.70
2023-05-11T11:01:25.099Z,18.90
2023-05-11T11:04:01.895Z,18.10
2023-05-11T11:06:33.541Z,17.10
2023-05-11T11:09:06.061Z,16.70
2023-05-11T11:11:39.376Z,18.20
2023-05-11T11:14:10.481Z,19.30
2023-05-11T11:16:41.198Z,18.90
2023-05-11T11:19:31.664Z,18.10
2023-05-11T11:22:02.704Z,17.70
2023-05-11T11:24:41.379Z,17.40
2023-05-11T11:27:11.619Z,17.70
2023-05-11T11:29:41.805Z,17.40
2023-05-11T11:32:26.983Z,17.50
2023-05-11T11:34:56.610Z,17.40
2023-05-11T11:37:26.090Z,17.60
2023-05-11T11:40:05.626Z,19.00
2023-05-11T11:42:35.615Z,19.90
2023-05-11T11:45:31.275Z,19.50
2023-05-11T11:48:16.273Z,18.40
2023-05-11T11:50:48.232Z,17.60
2023-05-11T11:53:41.736Z,17.20
2023-05-11T11:56:21.778Z,16.90
2023-05-11T11:58:54.316Z,17.10
2023-05-11T12:01:27.252Z,17.70
2023-05-11T12:04:25.785Z,17.40
2023-05-11T12:06:59.967Z,17.00
2023-05-11T12:09:29.600Z,16.50
2023-05-11T12:11:59.526Z,16.60
2023-05-11T12:14:29.435Z,18.10
2023-05-11T12:17:03.619Z,19.30
2023-05-11T12:19:33.105Z,19.20
2023-05-11T12:22:03.056Z,18.80
2023-05-11T12:24:32.617Z,18.20
2023-05-11T12:27:05.082Z,17.60
2023-05-11T12:29:35.278Z,17.60
2023-05-11T12:32:05.789Z,17.10
2023-05-11T12:34:35.315Z,16.60
2023-05-11T12:37:07.494Z,16.70
2023-05-11T12:39:39.769Z,16.60
2023-05-11T12:42:09.404Z,16.50
2023-05-11T12:44:38.958Z,16.90
2023-05-11T12:47:10.375Z,17.30
2023-05-11T12:49:43.427Z,17.50
2023-05-11T12:52:15.237Z,18.20
2023-05-11T12:54:54.903Z,18.20
2023-05-11T12:57:30.075Z,18.00
2023-05-11T13:00:12.040Z,18.30
2023-05-11T13:02:53.326Z,18.20
2023-05-11T13:05:27.732Z,18.50
2023-05-11T13:08:02.545Z,18.30
2023-05-11T13:10:32.504Z,18.40
2023-05-11T13:13:02.763Z,18.50
2023-05-11T13:15:33.385Z,19.50
2023-05-11T13:18:03.709Z,19.80
2023-05-11T13:20:35.073Z,19.40
2023-05-11T13:23:16.916Z,18.80
2023-05-11T13:25:54.421Z,18.40
2023-05-11T13:28:25.379Z,18.60
2023-05-11T13:31:01.989Z,18.50
2023-05-11T13:33:32.404Z,18.10
2023-05-11T13:36:03.594Z,17.40
2023-05-11T13:38:33.092Z,16.30
2023-05-11T13:41:02.570Z,16.00
2023-05-11T13:43:32.060Z,15.50
2023-05-11T13:46:00.955Z,15.30
2023-05-11T13:48:29.569Z,14.90
2023-05-11T13:50:58.704Z,15.00
2023-05-11T13:53:27.794Z,14.90
2023-05-11T13:55:56.396Z,15.10
2023-05-11T13:58:25.018Z,15.40
2023-05-11T14:01:07.367Z,15.50
2023-05-11T14:03:24.696Z,15.90
2023-05-11T14:05:53.630Z,16.20
2023-05-11T14:08:22.742Z,16.10
2023-05-11T14:10:51.367Z,16.40
2023-05-11T14:13:20.032Z,16.80
2023-05-11T14:15:48.817Z,17.40
2023-05-11T14:18:17.806Z,18.00
2023-05-11T14:20:46.763Z,17.60
2023-05-11T14:23:15.473Z,17.90
2023-05-11T14:25:44.091Z,17.70
2023-05-11T14:28:12.703Z,17.30
2023-05-11T14:30:41.931Z,17.00
2023-05-11T14:33:10.840Z,17.10
2023-05-11T14:35:40.131Z,16.90
2023-05-11T14:38:09.218Z,16.70
2023-05-11T14:40:37.828Z,16.60
2023-05-11T14:43:06.547Z,16.60
2023-05-11T14:45:35.702Z,16.80
2023-05-11T14:48:04.495Z,16.60
2023-05-11T14:50:34.395Z,16.60
2023-05-11T14:53:03.139Z,16.70
2023-05-11T14:55:31.814Z,16.70
2023-05-11T14:58:02.275Z,16.80
2023-05-11T15:00:32.948Z,16.70
2023-05-11T15:03:01.817Z,17.30
2023-05-11T15:05:30.833Z,17.60
2023-05-11T15:08:00.001Z,17.70
2023-05-11T15:10:29.006Z,17.80
2023-05-11T15:12:57.713Z,17.60
2023-05-11T15:15:26.828Z,17.30
2023-05-11T15:17:56.150Z,17.30
2023-05-11T15:20:24.884Z,17.60
2023-05-11T15:22:53.850Z,17.90
2023-05-11T15:25:22.474Z,18.10
2023-05-11T15:27:51.137Z,17.80
2023-05-11T15:30:20.882Z,17.90
2023-05-11T15:32:49.662Z,18.00
2023-05-11T15:35:20.696Z,18.20
2023-05-11T15:37:50.382Z,17.60
2023-05-11T15:40:19.309Z,17.20
2023-05-11T15:42:48.101Z,16.80
2023-05-11T15:45:18.325Z,16.50
2023-05-11T15:47:47.278Z,16.40
2023-05-11T15:50:16.556Z,16.10
2023-05-11T15:52:45.988Z,16.10
2023-05-11T15:55:14.747Z,16.00
2023-05-11T15:57:43.454Z,15.80
2023-05-11T16:00:13.987Z,15.60
2023-05-11T16:02:44.792Z,15.70
2023-05-11T16:05:13.655Z,15.70
2023-05-11T16:07:42.322Z,15.60
2023-05-11T16:10:11.511Z,15.40
2023-05-11T16:12:40.128Z,15.30
2023-05-11T16:15:09.211Z,15.30
2023-05-11T16:17:38.055Z,15.20
2023-05-11T16:20:07.529Z,15.30
2023-05-11T16:22:37.371Z,14.90
2023-05-11T16:25:06.742Z,15.00
2023-05-11T16:27:35.944Z,15.00
2023-05-11T16:30:17.961Z,14.80
2023-05-11T16:32:35.732Z,14.70
2023-05-11T16:35:04.951Z,14.70
2023-05-11T16:37:33.561Z,14.60
2023-05-11T16:40:02.330Z,14.50
2023-05-11T16:42:32.266Z,14.60
2023-05-11T16:45:00.889Z,14.40
2023-05-11T16:47:29.686Z,14.50
2023-05-11T16:49:58.346Z,14.40
2023-05-11T16:52:27.002Z,14.40
2023-05-11T16:54:58.973Z,14.60
2023-05-11T16:57:27.242Z,14.50
2023-05-11T16:59:55.845Z,14.40
2023-05-11T17:02:24.488Z,14.20
2023-05-11T17:04:53.254Z,14.30
2023-05-11T17:07:22.028Z,14.40
2023-05-11T17:09:52.434Z,14.80
2023-05-11T17:12:21.143Z,14.90
2023-05-11T17:14:50.502Z,15.10
2023-05-11T17:17:19.172Z,15.00
2023-05-11T17:19:47.809Z,15.10
2023-05-11T17:22:16.510Z,14.90
2023-05-11T17:24:45.323Z,14.60
2023-05-11T17:27:14.041Z,14.30
2023-05-11T17:29:45.491Z,14.20
2023-05-11T17:32:14.252Z,14.00
2023-05-11T17:34:43.550Z,14.00
2023-05-11T17:37:23.915Z,13.90
2023-05-11T17:39:43.019Z,13.80
2023-05-11T17:42:12.327Z,13.80
2023-05-11T17:44:41.170Z,13.60
2023-05-11T17:47:10.331Z,13.40
2023-05-11T17:49:39.503Z,13.40
2023-05-11T17:52:08.772Z,13.30
2023-05-11T17:54:38.043Z,13.30
2023-05-11T17:57:06.763Z,13.40
2023-05-11T17:59:35.438Z,13.40
2023-05-11T18:02:05.177Z,13.30
2023-05-11T18:04:33.784Z,13.40
2023-05-11T18:07:03.675Z,13.40
2023-05-11T18:09:32.685Z,13.40
2023-05-11T18:12:02.684Z,13.50
2023-05-11T18:14:31.442Z,13.40
2023-05-11T18:17:00.568Z,13.30
2023-05-11T18:19:29.991Z,13.20
2023-05-11T18:22:01.216Z,13.20
2023-05-11T18:24:31.618Z,13.00
2023-05-11T18:27:00.241Z,13.10
2023-05-11T18:29:29.055Z,13.00
2023-05-11T18:31:57.706Z,12.90
2023-05-11T18:34:26.774Z,13.00
2023-05-11T18:36:55.622Z,12.90
2023-05-11T18:39:24.272Z,12.90
2023-05-11T18:41:52.911Z,13.00
2023-05-11T18:44:21.571Z,13.00
2023-05-11T18:46:50.576Z,13.00
2023-05-11T18:49:19.247Z,13.10
2023-05-11T18:51:48.029Z,13.00
2023-05-11T18:54:16.651Z,13.00
2023-05-11T18:56:45.573Z,12.90
2023-05-11T18:59:14.191Z,13.00
2023-05-11T19:01:48.069Z,12.90
2023-05-11T19:04:16.379Z,13.10
2023-05-11T19:06:44.995Z,12.90
2023-05-11T19:09:14.324Z,12.90
2023-05-11T19:11:43.059Z,12.90
2023-05-11T19:14:13.298Z,12.80
2023-05-11T19:16:42.697Z,12.80
2023-05-11T19:19:13.297Z,12.60
2023-05-11T19:21:43.449Z,12.80
2023-05-11T19:24:12.680Z,12.60
2023-05-11T19:26:45.373Z,12.60
2023-05-11T19:29:17.014Z,12.60
2023-05-11T19:31:46.157Z,12.60
2023-05-11T19:34:15.308Z,12.70
2023-05-11T19:36:43.990Z,12.50
2023-05-11T19:39:12.917Z,12.60
2023-05-11T19:41:41.523Z,12.50
2023-05-11T19:44:10.673Z,12.50
2023-05-11T19:46:41.357Z,12.50
2023-05-11T19:49:10.921Z,12.40
2023-05-11T19:51:39.779Z,12.20
2023-05-11T19:54:08.534Z,12.40
2023-05-11T19:56:37.173Z,12.30
2023-05-11T19:59:05.776Z,12.30
2023-05-11T20:01:36.006Z,12.30
2023-05-11T20:04:05.037Z,12.10
2023-05-11T20:06:34.576Z,12.20
2023-05-11T20:09:03.362Z,12.20
2023-05-11T20:11:32.046Z,12.20
2023-05-11T20:14:00.784Z,12.20
2023-05-11T20:16:31.043Z,12.30
2023-05-11T20:18:59.851Z,12.30
2023-05-11T20:21:28.976Z,12.30
2023-05-11T20:23:57.652Z,12.30
2023-05-11T20:26:27.325Z,12.20
2023-05-11T20:28:55.936Z,12.20
2023-05-11T20:31:26.034Z,12.30
2023-05-11T20:36:24.944Z,12.20
2023-05-11T20:38:54.235Z,12.20
2023-05-11T20:41:23.139Z,12.20
2023-05-11T20:43:53.317Z,12.30
2023-05-11T20:46:22.014Z,12.10
2023-05-11T20:48:51.922Z,12.10
2023-05-11T20:51:22.498Z,12.00
2023-05-11T20:53:51.883Z,12.20
2023-05-11T20:56:21.567Z,12.10
2023-05-11T20:58:50.181Z,12.00
2023-05-11T21:01:19.596Z,11.90
2023-05-11T21:03:48.462Z,11.80
2023-05-11T21:06:17.570Z,12.00
2023-05-11T21:08:46.779Z,11.80
2023-05-11T21:11:15.470Z,11.80
2023-05-11T21:13:44.155Z,11.90
2023-05-11T21:16:12.802Z,11.90
2023-05-11T21:18:42.885Z,11.90
2023-05-11T21:21:11.925Z,11.90
2023-05-11T21:23:40.814Z,11.90
2023-05-11T21:26:09.410Z,11.90
2023-05-11T21:28:39.659Z,11.70
2023-05-11T21:31:09.005Z,11.80
2023-05-11T21:33:38.009Z,11.80
2023-05-11T21:36:08.144Z,11.80
2023-05-11T21:38:36.814Z,11.70
2023-05-11T21:41:05.419Z,11.50
2023-05-11T21:43:34.037Z,11.50
2023-05-11T21:46:03.290Z,11.50
2023-05-11T21:48:32.180Z,11.50
2023-05-11T21:51:00.769Z,11.60
2023-05-11T21:53:29.678Z,11.50
2023-05-11T21:55:58.301Z,11.50
2023-05-11T21:58:27.800Z,11.60
2023-05-11T22:00:57.935Z,11.70
2023-05-11T22:03:28.325Z,11.50
2023-05-11T22:05:57.009Z,11.60
2023-05-11T22:08:26.300Z,11.50
2023-05-11T22:10:54.996Z,11.60
2023-05-11T22:13:23.610Z,11.50
2023-05-11T22:15:52.942Z,11.50
2023-05-11T22:18:21.794Z,11.60
2023-05-11T22:20:50.456Z,11.50
2023-05-11T22:23:19.134Z,11.50
2023-05-11T22:25:47.759Z,11.50
2023-05-11T22:28:16.687Z,11.50
2023-05-11T22:30:45.600Z,11.50
2023-05-11T22:33:14.461Z,11.50
2023-05-11T22:35:43.056Z,11.50
2023-05-11T22:38:12.585Z,11.30
2023-05-11T22:40:41.248Z,11.30
2023-05-11T22:43:09.950Z,11.30
2023-05-11T22:45:39.067Z,11.30
2023-05-11T22:48:08.047Z,11.30
2023-05-11T22:50:36.838Z,11.30
2023-05-11T22:53:05.779Z,11.30
2023-05-11T22:55:34.447Z,11.30
2023-05-11T22:58:04.044Z,11.30
2023-05-11T23:00:32.738Z,11.30
2023-05-11T23:03:03.146Z,11.40
2023-05-11T23:05:32.665Z,11.30
2023-05-11T23:08:01.443Z,11.30
2023-05-11T23:10:30.769Z,11.40
2023-05-11T23:12:59.391Z,11.40
2023-05-11T23:15:28.875Z,11.50
2023-05-11T23:17:57.630Z,11.50
2023-05-11T23:20:26.838Z,11.40
2023-05-11T23:22:55.693Z,11.50
2023-05-11T23:25:25.845Z,11.50
2023-05-11T23:27:56.931Z,11.50
2023-05-11T23:30:26.046Z,11.60
2023-05-11T23:32:54.672Z,11.30
2023-05-11T23:35:23.436Z,11.40
2023-05-11T23:37:52.152Z,11.40
2023-05-11T23:40:21.084Z,11.60
2023-05-11T23:42:51.460Z,11.60
2023-05-11T23:45:20.165Z,11.40
2023-05-11T23:47:49.305Z,11.40
2023-05-11T23:50:19.228Z,11.30
2023-05-11T23:52:48.399Z,11.20
2023-05-11T23:55:17.078Z,11.30
2023-05-11T23:57:46.458Z,11.10
